Time;durP1;ratioP1;P1;durP2;ratioP2;P2;SDS_P1;SDS_P2;PMS_P1;PMS_P2;Temp;Humidity;BMP_temperature;BMP_pressure;BME280_temperature;BME280_humidity;BME280_pressure;Samples;Min_cycle;Max_cycle;Signal;HPM_P1;HPM_P2
2023/05/08 00:01:16;;;;;;;1.38;1.10;;;20.20;59.30;;;;;;6029116;29;20053;-71
2023/05/08 00:04:27;;;;;;;;;;;20.20;59.30;;;;;;6027846;29;20226;-71
2023/05/08 00:07:36;;;;;;;2.05;0.90;;;20.10;59.10;;;;;;6027613;29;19923;-71
2023/05/08 00:10:44;;;;;;;0.93;0.82;;;20.10;59.00;;;;;;6029043;29;20098;-71
2023/05/08 00:13:56;;;;;;;1.42;1.02;;;20.10;59.10;;;;;;6029279;29;20037;-72
2023/05/08 00:17:09;;;;;;;4.25;1.17;;;20.10;59.10;;;;;;6028640;29;20041;-71
2023/05/08 00:20:13;;;;;;;2.58;1.02;;;20.10;59.20;;;;;;6006074;29;20049;-71
2023/05/08 00:23:20;;;;;;;1.98;0.90;;;20.10;59.20;;;;;;6006056;29;20102;-71
2023/05/08 00:26:29;;;;;;;1.20;0.80;;;20.10;59.20;;;;;;6019547;29;20050;-72
2023/05/08 00:29:41;;;;;;;2.03;1.17;;;20.10;59.10;;;;;;6028706;29;20045;-71
2023/05/08 00:32:50;;;;;;;1.45;0.98;;;20.10;59.10;;;;;;6028207;29;20289;-71
2023/05/08 00:36:06;;;;;;;1.38;1.02;;;20.10;59.10;;;;;;6028663;29;20040;-71
2023/05/08 00:39:14;;;;;;;1.10;1.00;;;20.10;59.10;;;;;;6028525;29;20120;-71
2023/05/08 00:42:24;;;;;;;9.00;1.42;;;20.10;59.10;;;;;;6027228;29;20037;-71
2023/05/08 00:45:36;;;;;;;4.32;1.10;;;20.00;59.20;;;;;;6027161;29;20049;-71
2023/05/08 00:48:43;;;;;;;1.98;0.88;;;20.00;59.30;;;;;;6028317;29;20034;-71
2023/05/08 00:51:50;;;;;;;1.55;1.33;;;20.00;59.30;;;;;;6034935;29;20066;-71
2023/05/08 00:54:56;;;;;;;2.58;1.40;;;20.00;59.40;;;;;;6041688;29;20105;-72
2023/05/08 00:58:08;;;;;;;9.48;1.52;;;20.00;59.50;;;;;;6026636;29;20041;-70
2023/05/08 01:01:18;;;;;;;0.93;0.90;;;19.90;59.50;;;;;;6011512;29;20030;-70
2023/05/08 01:04:27;;;;;;;2.38;1.05;;;19.90;59.60;;;;;;6028192;29;20060;-70
2023/05/08 01:07:34;;;;;;;1.80;1.20;;;19.90;59.80;;;;;;6028140;29;20133;-71
2023/05/08 01:11:09;;;;;;;2.13;0.90;;;19.90;59.90;;;;;;6028350;29;20037;-70
2023/05/08 01:14:29;;;;;;;1.30;1.00;;;19.90;60.00;;;;;;6032437;29;20029;-70
2023/05/08 01:18:05;;;;;;;10.02;1.30;;;19.90;60.10;;;;;;6027894;29;20071;-70
2023/05/08 01:21:34;;;;;;;1.60;0.70;;;19.80;60.10;;;;;;6026350;29;20037;-71
2023/05/08 01:25:12;;;;;;;2.72;1.10;;;19.70;60.20;;;;;;6027557;29;20025;-71
2023/05/08 01:28:35;;;;;;;1.42;0.95;;;19.80;60.10;;;;;;6025883;29;20133;-71
2023/05/08 01:31:54;;;;;;;1.50;0.70;;;19.80;60.10;;;;;;6025835;29;20150;-71
2023/05/08 01:35:34;;;;;;;0.93;0.77;;;19.80;60.10;;;;;;6024865;29;20145;-71
2023/05/08 01:38:56;;;;;;;1.20;0.77;;;19.80;60.20;;;;;;6025750;29;20041;-71
2023/05/08 01:42:12;;;;;;;0.80;0.80;;;19.80;60.10;;;;;;6027424;29;20077;-71
2023/05/08 01:45:47;;;;;;;0.82;0.80;;;19.80;60.00;;;;;;6027429;29;20036;-71
2023/05/08 01:49:11;;;;;;;1.42;1.10;;;19.80;60.00;;;;;;6026983;29;20038;-71
2023/05/08 01:52:38;;;;;;;4.38;1.50;;;19.80;60.00;;;;;;6037164;29;20445;-71
2023/05/08 01:55:48;;;;;;;3.05;1.30;;;19.80;60.30;;;;;;6034717;29;20026;-71
2023/05/08 01:59:01;;;;;;;1.90;1.42;;;19.80;60.30;;;;;;6026827;29;20032;-71
2023/05/08 02:02:14;;;;;;;2.30;1.50;;;19.80;60.40;;;;;;6025094;29;20034;-70
2023/05/08 02:05:29;;;;;;;2.15;1.60;;;19.80;60.50;;;;;;6026536;29;20120;-71
2023/05/08 02:08:34;;;;;;;3.25;1.50;;;19.70;60.60;;;;;;6025527;29;20084;-71
2023/05/08 02:11:48;;;;;;;1.63;1.30;;;19.70;60.70;;;;;;6024878;29;20628;-71
2023/05/08 02:14:57;;;;;;;2.33;1.42;;;19.70;60.80;;;;;;6025924;29;20045;-71
2023/05/08 02:18:12;;;;;;;2.38;1.30;;;19.60;60.90;;;;;;6026483;29;20073;-71
2023/05/08 02:21:18;;;;;;;2.15;1.00;;;19.50;61.10;;;;;;6026715;29;20028;-71
2023/05/08 02:24:29;;;;;;;1.58;1.17;;;19.50;61.20;;;;;;6023773;29;20029;-71
2023/05/08 02:27:37;;;;;;;3.97;1.10;;;19.40;61.40;;;;;;6024712;29;20037;-71
2023/05/08 02:30:45;;;;;;;1.95;0.85;;;19.40;61.40;;;;;;6026065;29;20483;-71
2023/05/08 02:33:56;;;;;;;2.20;1.27;;;19.50;61.50;;;;;;6010451;29;20034;-70
2023/05/08 02:37:07;;;;;;;3.50;1.17;;;19.50;61.50;;;;;;6003172;29;20038;-70
2023/05/08 02:40:18;;;;;;;2.38;1.10;;;19.40;61.40;;;;;;6003334;29;20157;-71
2023/05/08 02:43:29;;;;;;;1.33;0.85;;;19.40;61.40;;;;;;6003152;29;20040;-72
2023/05/08 02:46:53;;;;;;;4.93;1.35;;;19.40;61.30;;;;;;6003148;29;20060;-70
2023/05/08 02:50:14;;;;;;;1.50;1.20;;;19.40;61.60;;;;;;6002774;29;20044;-71
2023/05/08 02:53:31;;;;;;;4.70;1.10;;;19.40;62.50;;;;;;6039301;29;20030;-71
2023/05/08 02:57:06;;;;;;;1.30;1.20;;;19.40;61.60;;;;;;6026201;29;20112;-71
2023/05/08 03:00:26;;;;;;;2.83;1.48;;;19.40;61.60;;;;;;5998728;29;20560;-71
2023/05/08 03:03:44;;;;;;;3.25;1.40;;;19.40;61.40;;;;;;6025826;29;20025;-71
2023/05/08 03:06:54;;;;;;;3.13;1.83;;;19.40;61.30;;;;;;6023740;29;20045;-73
2023/05/08 03:10:08;;;;;;;2.35;1.75;;;19.40;61.20;;;;;;6024130;29;20088;-71
2023/05/08 03:13:17;;;;;;;2.67;1.65;;;19.40;61.20;;;;;;6024114;29;20042;-72
2023/05/08 03:16:33;;;;;;;2.08;1.50;;;19.40;61.20;;;;;;6025373;29;20041;-71
2023/05/08 03:19:41;;;;;;;1.90;1.40;;;19.40;61.30;;;;;;6025191;29;20395;-70
2023/05/08 03:22:53;;;;;;;2.35;1.35;;;19.40;61.30;;;;;;6023966;29;20133;-71
2023/05/08 03:26:11;;;;;;;1.85;1.38;;;19.40;61.40;;;;;;6025069;29;20050;-72
2023/05/08 03:29:18;;;;;;;2.67;1.48;;;19.40;61.30;;;;;;6039222;29;20035;-71
2023/05/08 03:32:29;;;;;;;1.45;1.33;;;19.40;61.20;;;;;;6034590;29;20045;-70
2023/05/08 03:35:39;;;;;;;2.03;1.40;;;19.40;61.30;;;;;;6005710;29;20042;-71
2023/05/08 03:38:55;;;;;;;2.22;1.23;;;19.40;61.30;;;;;;6005241;29;20399;-71
2023/05/08 03:42:06;;;;;;;2.42;1.48;;;19.40;61.20;;;;;;6007004;29;20030;-71
2023/05/08 03:45:16;;;;;;;1.35;1.17;;;19.40;61.30;;;;;;6006733;29;20034;-70
2023/05/08 03:48:27;;;;;;;1.50;1.30;;;19.40;61.30;;;;;;6006869;29;20087;-71
2023/05/08 03:51:39;;;;;;;1.90;1.30;;;19.40;61.30;;;;;;6015847;29;20516;-71
2023/05/08 03:54:47;;;;;;;1.85;1.40;;;19.40;61.30;;;;;;6052654;29;20061;-70
2023/05/08 03:58:07;;;;;;;1.55;1.15;;;19.30;61.40;;;;;;6050584;29;20140;-71
2023/05/08 04:01:47;;;;;;;2.42;1.40;;;19.30;61.50;;;;;;6052328;29;20040;-72
2023/05/08 04:05:02;;;;;;;1.80;1.38;;;19.30;61.60;;;;;;6031695;29;20026;-71
2023/05/08 04:08:18;;;;;;;1.45;1.20;;;19.30;61.50;;;;;;6028778;29;20044;-72
2023/05/08 04:11:42;;;;;;;5.28;1.65;;;19.30;61.40;;;;;;6031580;29;20045;-71
2023/05/08 04:15:08;;;;;;;7.43;1.38;;;19.30;61.40;;;;;;6030426;29;20041;-70
2023/05/08 04:18:25;;;;;;;2.13;1.50;;;19.30;61.30;;;;;;6029075;29;20057;-71
2023/05/08 04:21:37;;;;;;;2.00;1.15;;;19.30;61.30;;;;;;6027810;29;20082;-71
2023/05/08 04:24:46;;;;;;;2.13;1.42;;;19.30;61.30;;;;;;6028937;29;20033;-72
2023/05/08 04:28:04;;;;;;;2.58;1.30;;;19.30;61.20;;;;;;6042425;29;20038;-70
2023/05/08 04:31:17;;;;;;;;;;;19.40;61.20;;;;;;6027988;29;20037;-70
2023/05/08 04:34:25;;;;;;;2.35;1.48;;;19.40;61.10;;;;;;6009305;29;19923;-70
2023/05/08 04:37:34;;;;;;;3.05;1.25;;;19.40;60.70;;;;;;6005607;29;20038;-71
2023/05/08 04:40:40;;;;;;;2.30;1.20;;;19.40;60.60;;;;;;6003582;29;20049;-71
2023/05/08 04:43:49;;;;;;;1.45;1.30;;;19.40;60.60;;;;;;6005790;29;20126;-71
2023/05/08 04:46:58;;;;;;;4.80;1.20;;;19.40;60.60;;;;;;6004551;29;20045;-70
2023/05/08 04:50:08;;;;;;;3.30;1.17;;;19.40;60.60;;;;;;6019392;29;20030;-71
2023/05/08 04:53:17;;;;;;;1.40;1.27;;;19.40;60.60;;;;;;6040360;29;20429;-75
2023/05/08 04:56:29;;;;;;;2.10;1.30;;;19.40;60.50;;;;;;6030730;29;20052;-71
2023/05/08 04:59:34;;;;;;;1.30;1.10;;;19.40;60.60;;;;;;6028120;29;20049;-71
2023/05/08 05:02:42;;;;;;;2.55;1.88;;;19.40;60.60;;;;;;6026375;29;20037;-71
2023/05/08 05:06:06;;;;;;;1.42;1.10;;;19.40;60.60;;;;;;6026423;29;20096;-70
2023/05/08 05:09:13;;;;;;;1.83;1.40;;;19.40;60.60;;;;;;6003459;29;20450;-70
2023/05/08 05:12:22;;;;;;;7.15;1.63;;;19.40;60.60;;;;;;6018965;29;20201;-72
2023/05/08 05:15:29;;;;;;;3.17;1.30;;;19.40;60.60;;;;;;6005188;29;20113;-72
2023/05/08 05:18:39;;;;;;;2.50;1.20;;;19.40;60.60;;;;;;6014533;29;20030;-71
2023/05/08 05:21:48;;;;;;;7.10;1.52;;;19.40;60.60;;;;;;6028156;29;20143;-71
2023/05/08 05:24:59;;;;;;;3.42;1.42;;;19.30;60.60;;;;;;6027828;29;20022;-71
2023/05/08 05:28:13;;;;;;;3.30;1.85;;;19.40;60.70;;;;;;6026045;29;20045;-71
2023/05/08 05:31:21;;;;;;;2.10;1.30;;;19.40;60.60;;;;;;6027840;29;20041;-70
2023/05/08 05:34:27;;;;;;;1.92;1.40;;;19.40;60.50;;;;;;6027791;29;20069;-71
2023/05/08 05:37:34;;;;;;;3.88;1.48;;;19.40;60.50;;;;;;6027785;29;20037;-71
2023/05/08 05:40:40;;;;;;;8.02;2.03;;;19.40;60.40;;;;;;6041483;29;20040;-72
2023/05/08 05:43:50;;;;;;;3.92;1.48;;;19.40;60.50;;;;;;6027869;29;20049;-71
2023/05/08 05:46:59;;;;;;;1.77;1.20;;;19.50;60.50;;;;;;6026067;29;20048;-71
2023/05/08 05:50:11;;;;;;;2.30;1.50;;;19.60;60.30;;;;;;6025922;29;20037;-71
2023/05/08 05:53:19;;;;;;;1.50;1.33;;;19.60;60.10;;;;;;6045364;29;20037;-71
2023/05/08 05:56:26;;;;;;;1.25;1.15;;;19.80;60.00;;;;;;6028957;29;20037;-71
2023/05/08 05:59:34;;;;;;;2.28;1.55;;;19.90;59.80;;;;;;6025940;29;20188;-71
2023/05/08 06:02:40;;;;;;;;;;;20.10;59.60;;;;;;6025768;29;20037;-71
2023/05/08 06:05:54;;;;;;;8.80;1.30;;;20.20;59.20;;;;;;6025642;29;19924;-71
2023/05/08 06:09:07;;;;;;;2.28;1.20;;;20.40;58.70;;;;;;6026569;29;20105;-71
2023/05/08 06:12:14;;;;;;;2.35;1.50;;;20.50;58.50;;;;;;6027079;29;20025;-71
2023/05/08 06:15:22;;;;;;;1.63;1.40;;;20.60;58.30;;;;;;6025493;29;20509;-71
2023/05/08 06:18:29;;;;;;;1.58;1.27;;;20.60;58.10;;;;;;6026588;29;20190;-71
2023/05/08 06:21:36;;;;;;;5.03;1.90;;;20.80;58.00;;;;;;6026892;29;20048;-70
2023/05/08 06:24:44;;;;;;;2.38;1.20;;;20.90;57.80;;;;;;6024957;29;20447;-72
2023/05/08 06:27:56;;;;;;;2.08;1.75;;;20.90;57.60;;;;;;6024724;29;20037;-74
2023/05/08 06:31:09;;;;;;;3.20;1.77;;;21.00;57.30;;;;;;6026056;29;20065;-71
2023/05/08 06:34:14;;;;;;;5.60;1.80;;;21.00;57.30;;;;;;6017291;29;20135;-72
2023/05/08 06:37:22;;;;;;;5.28;2.00;;;21.00;57.20;;;;;;6003096;29;20048;-71
2023/05/08 06:40:30;;;;;;;2.80;1.58;;;21.00;57.10;;;;;;6003335;29;20046;-72
2023/05/08 06:43:34;;;;;;;2.17;1.67;;;21.00;57.00;;;;;;6003671;29;20140;-71
2023/05/08 06:46:40;;;;;;;1.60;1.50;;;20.90;57.00;;;;;;6003456;29;20037;-72
2023/05/08 06:49:52;;;;;;;2.45;1.52;;;21.00;57.20;;;;;;6003236;29;20134;-72
2023/05/08 06:53:06;;;;;;;2.35;1.55;;;21.00;57.00;;;;;;6033072;29;20033;-71
2023/05/08 06:56:18;;;;;;;3.58;1.75;;;21.10;56.90;;;;;;6029389;29;20039;-72
2023/05/08 06:59:28;;;;;;;4.32;1.80;;;21.10;56.80;;;;;;6025442;29;20117;-72
2023/05/08 07:02:33;;;;;;;1.75;1.60;;;21.10;56.80;;;;;;6024595;29;20101;-71
2023/05/08 07:05:40;;;;;;;3.80;2.05;;;21.10;56.80;;;;;;6025779;29;20166;-71
2023/05/08 07:08:50;;;;;;;6.93;2.22;;;21.10;56.70;;;;;;6024550;29;20045;-70
2023/05/08 07:12:03;;;;;;;4.15;2.28;;;21.20;56.80;;;;;;6029424;29;20195;-71
2023/05/08 07:15:14;;;;;;;5.05;2.80;;;21.20;56.70;;;;;;6031841;29;20177;-72
2023/05/08 07:18:23;;;;;;;5.72;2.47;;;21.20;56.60;;;;;;6030533;29;20077;-71
2023/05/08 07:21:28;;;;;;;4.05;2.50;;;21.30;56.60;;;;;;6030896;29;20040;-72
2023/05/08 07:24:33;;;;;;;6.15;2.13;;;21.30;56.50;;;;;;6030092;29;20033;-72
2023/05/08 07:27:42;;;;;;;7.18;2.20;;;21.40;56.40;;;;;;6030010;29;20127;-70
2023/05/08 07:30:52;;;;;;;2.45;2.10;;;21.50;56.30;;;;;;6023618;29;20036;-72
2023/05/08 07:34:01;;;;;;;3.03;1.92;;;21.60;56.20;;;;;;6014493;29;20041;-71
2023/05/08 07:37:07;;;;;;;8.25;2.55;;;21.60;55.90;;;;;;6007207;29;20464;-71
2023/05/08 07:40:15;;;;;;;3.50;1.95;;;21.70;56.00;;;;;;6007262;29;20120;-71
2023/05/08 07:43:24;;;;;;;4.03;1.70;;;21.70;56.00;;;;;;6007294;29;20078;-72
2023/05/08 07:46:32;;;;;;;2.30;1.80;;;21.70;55.90;;;;;;6007221;29;20037;-70
2023/05/08 07:49:39;;;;;;;6.85;1.63;;;21.70;55.80;;;;;;6025499;29;20124;-71
2023/05/08 07:52:51;;;;;;;3.47;1.98;;;21.80;55.80;;;;;;6042277;29;20045;-72
2023/05/08 07:56:03;;;;;;;4.03;1.83;;;21.80;55.70;;;;;;6034775;29;20195;-71
2023/05/08 07:59:07;;;;;;;1.67;1.40;;;21.80;55.70;;;;;;6029754;29;20102;-73
2023/05/08 08:02:14;;;;;;;3.65;1.63;;;21.80;55.70;;;;;;6028369;29;20037;-72
2023/05/08 08:05:23;;;;;;;8.70;2.50;;;21.90;55.80;;;;;;6029605;29;20437;-72
2023/05/08 08:08:30;;;;;;;6.75;2.15;;;21.90;55.60;;;;;;6029581;29;20041;-71
2023/05/08 08:11:40;;;;;;;3.67;1.73;;;22.00;55.50;;;;;;6043487;29;20042;-70
2023/05/08 08:14:53;;;;;;;5.90;2.15;;;22.00;55.30;;;;;;6029624;29;20049;-71
2023/05/08 08:18:04;;;;;;;5.63;2.58;;;22.00;55.10;;;;;;6028699;29;20180;-71
2023/05/08 08:21:14;;;;;;;4.70;2.80;;;22.10;54.90;;;;;;6028487;29;20044;-74
2023/05/08 08:24:27;;;;;;;9.50;3.33;;;22.20;55.40;;;;;;6027063;29;20041;-71
2023/05/08 08:27:33;;;;;;;6.80;3.40;;;22.20;54.50;;;;;;6027001;29;20061;-72
2023/05/08 08:30:39;;;;;;;4.63;2.80;;;22.20;54.40;;;;;;6028987;29;20045;-72
2023/05/08 08:33:50;;;;;;;5.95;3.42;;;22.20;54.50;;;;;;6004546;29;20042;-72
2023/05/08 08:36:56;;;;;;;5.68;2.55;;;22.20;54.30;;;;;;6004581;29;20092;-70
2023/05/08 08:40:12;;;;;;;4.63;2.63;;;22.20;54.20;;;;;;6004585;29;20136;-72
2023/05/08 08:43:21;;;;;;;4.85;2.83;;;22.20;54.10;;;;;;6003849;29;20069;-72
2023/05/08 08:46:29;;;;;;;5.85;2.72;;;22.30;54.10;;;;;;6005774;29;20037;-71
2023/05/08 08:49:44;;;;;;;5.22;2.72;;;22.30;54.10;;;;;;6005383;29;20124;-72
2023/05/08 08:53:22;;;;;;;4.85;2.33;;;22.40;53.80;;;;;;6033770;29;20037;-72
2023/05/08 08:56:33;;;;;;;4.32;2.72;;;22.60;53.60;;;;;;6028083;29;20037;-72
2023/05/08 08:59:39;;;;;;;4.53;2.40;;;22.80;53.10;;;;;;6026387;29;20098;-71
2023/05/08 09:02:51;;;;;;;4.00;2.42;;;23.00;52.70;;;;;;6027858;29;20022;-72
2023/05/08 09:06:02;;;;;;;3.33;2.40;;;23.20;52.10;;;;;;6027565;29;20398;-72
2023/05/08 09:09:15;;;;;;;4.85;2.47;;;23.30;51.50;;;;;;6027619;29;20056;-71
2023/05/08 09:12:25;;;;;;;3.42;2.33;;;23.30;51.10;;;;;;6026293;29;20045;-71
2023/05/08 09:15:34;;;;;;;4.57;2.60;;;23.40;51.50;;;;;;6026391;29;20057;-72
2023/05/08 09:18:40;;;;;;;6.45;3.28;;;23.60;50.70;;;;;;6041528;29;20034;-71
2023/05/08 09:21:51;;;;;;;4.50;3.15;;;23.60;50.30;;;;;;6027567;29;20030;-71
2023/05/08 09:25:02;;;;;;;5.57;2.63;;;23.70;50.00;;;;;;6025872;29;20029;-73
2023/05/08 09:28:26;;;;;;;4.82;3.15;;;23.70;49.90;;;;;;6026683;29;20082;-70
2023/05/08 09:31:39;;;;;;;6.32;2.05;;;23.70;49.80;;;;;;6024953;29;20265;-71
2023/05/08 09:34:42;;;;;;;8.32;2.45;;;23.70;49.60;;;;;;6005650;29;20078;-72
2023/05/08 09:37:51;;;;;;;3.40;2.33;;;23.80;49.60;;;;;;6004286;29;20400;-72
2023/05/08 09:41:14;;;;;;;3.28;2.00;;;23.80;49.50;;;;;;6012288;29;20034;-71
2023/05/08 09:44:20;;;;;;;3.05;1.98;;;23.80;49.30;;;;;;6026893;29;20470;-71
2023/05/08 09:47:31;;;;;;;3.10;1.90;;;23.80;49.30;;;;;;6025376;29;20110;-70
2023/05/08 09:50:38;;;;;;;2.90;2.20;;;23.80;49.30;;;;;;6026886;29;20048;-72
2023/05/08 09:53:48;;;;;;;3.33;2.10;;;23.80;49.30;;;;;;6047573;29;20029;-72
2023/05/08 09:56:54;;;;;;;3.65;2.75;;;23.80;49.20;;;;;;6026432;29;20036;-72
2023/05/08 10:00:04;;;;;;;4.70;2.17;;;23.80;49.20;;;;;;6026113;29;20066;-71
2023/05/08 10:03:16;;;;;;;2.53;1.83;;;24.00;49.10;;;;;;6026291;29;20029;-71
2023/05/08 10:06:27;;;;;;;2.05;1.67;;;24.10;48.80;;;;;;6026391;29;20117;-72
2023/05/08 10:09:33;;;;;;;4.05;2.53;;;24.30;48.60;;;;;;6009600;29;20045;-71
2023/05/08 10:12:41;;;;;;;3.10;2.28;;;24.40;48.20;;;;;;6025340;29;20141;-72
2023/05/08 10:15:56;;;;;;;4.22;2.28;;;24.40;47.90;;;;;;6024927;29;20093;-72
2023/05/08 10:19:19;;;;;;;5.05;2.38;;;24.40;47.60;;;;;;6025913;29;20033;-72
2023/05/08 10:22:29;;;;;;;2.65;2.22;;;24.50;47.50;;;;;;6025422;29;20467;-71
2023/05/08 10:25:47;;;;;;;4.60;2.33;;;24.60;47.40;;;;;;6026360;29;20036;-70
2023/05/08 10:29:08;;;;;;;5.15;2.20;;;24.70;47.00;;;;;;6025992;29;20045;-71
2023/05/08 10:32:18;;;;;;;2.65;2.00;;;24.80;46.80;;;;;;6022803;29;20033;-72
2023/05/08 10:35:30;;;;;;;3.40;2.42;;;24.90;46.50;;;;;;6003868;29;20034;-72
2023/05/08 10:38:39;;;;;;;3.75;2.05;;;25.10;46.30;;;;;;6021241;29;20159;-72
2023/05/08 10:41:49;;;;;;;3.67;2.40;;;25.10;46.00;;;;;;6026033;29;20053;-72
2023/05/08 10:44:59;;;;;;;2.80;1.92;;;25.30;45.70;;;;;;6025307;29;20049;-72
2023/05/08 10:48:13;;;;;;;3.42;2.30;;;25.50;45.40;;;;;;6026111;29;20033;-71
2023/05/08 10:51:49;;;;;;;3.72;2.17;;;25.70;44.90;;;;;;6028600;29;20112;-72
2023/05/08 10:55:16;;;;;;;5.65;2.20;;;26.00;44.60;;;;;;6037836;29;20045;-70
2023/05/08 10:58:41;;;;;;;4.45;2.60;;;25.90;44.10;;;;;;6003022;29;20117;-73
2023/05/08 11:01:52;;;;;;;3.85;2.13;;;25.70;44.20;;;;;;6003020;29;20053;-71
2023/05/08 11:05:22;;;;;;;2.60;2.00;;;25.40;44.20;;;;;;6001815;29;20034;-73
2023/05/08 11:08:30;;;;;;;3.83;1.67;;;25.50;44.40;;;;;;6001290;29;20042;-72
2023/05/08 11:11:44;;;;;;;5.18;2.20;;;25.50;44.30;;;;;;6003214;29;20065;-72
2023/05/08 11:15:35;;;;;;;2.58;1.70;;;25.60;44.40;;;;;;6003619;29;20118;-72
2023/05/08 11:19:21;;;;;;;4.13;2.22;;;25.50;44.50;;;;;;5918020;30;20051;-72
2023/05/08 11:22:28;;;;;;;2.35;1.90;;;25.30;44.70;;;;;;5866769;30;20087;-74
2023/05/08 11:25:47;;;;;;;4.85;2.17;;;25.20;44.90;;;;;;5866973;30;20052;-72
2023/05/08 11:29:01;;;;;;;2.92;1.80;;;25.00;45.10;;;;;;5852387;30;20051;-72
2023/05/08 11:32:10;;;;;;;6.20;2.00;;;25.10;45.50;;;;;;5866814;30;20094;-71
2023/05/08 11:35:54;;;;;;;4.05;2.15;;;25.10;45.50;;;;;;5845618;30;20056;-71
2023/05/08 11:39:17;;;;;;;6.47;2.10;;;25.10;46.10;;;;;;5844821;30;20049;-72
2023/05/08 11:42:39;;;;;;;2.88;1.77;;;25.00;45.70;;;;;;5864538;30;20045;-71
2023/05/08 11:45:49;;;;;;;3.20;1.60;;;25.00;45.80;;;;;;5867196;30;20064;-72
2023/05/08 11:49:08;;;;;;;2.17;1.50;;;24.90;46.10;;;;;;5852536;30;20051;-71
2023/05/08 11:52:18;;;;;;;2.15;1.30;;;24.90;46.30;;;;;;5852568;30;20152;-72
2023/05/08 11:55:28;;;;;;;1.90;1.20;;;25.00;46.20;;;;;;5911859;30;20035;-71
2023/05/08 11:58:35;;;;;;;2.72;1.38;;;25.10;45.90;;;;;;5938437;29;20465;-70
2023/05/08 12:01:44;;;;;;;1.63;1.42;;;25.20;46.40;;;;;;6008817;29;20037;-70
2023/05/08 12:04:51;;;;;;;3.37;1.40;;;25.40;45.60;;;;;;6008606;29;20041;-71
2023/05/08 12:08:03;;;;;;;2.38;1.67;;;25.50;45.50;;;;;;6009009;29;20275;-71
2023/05/08 12:11:23;;;;;;;4.32;1.60;;;25.60;45.40;;;;;;6007510;29;20088;-72
2023/05/08 12:14:30;;;;;;;3.28;1.70;;;25.60;45.30;;;;;;6007962;29;20077;-71
2023/05/08 12:17:35;;;;;;;3.70;1.67;;;25.60;45.30;;;;;;6006563;29;20128;-72
2023/05/08 12:20:40;;;;;;;1.80;1.70;;;25.80;45.20;;;;;;6005794;29;20030;-71
2023/05/08 12:23:51;;;;;;;3.85;1.65;;;26.20;44.50;;;;;;6007133;29;20074;-71
2023/05/08 12:27:04;;;;;;;4.85;1.67;;;26.40;43.90;;;;;;6005231;29;20110;-71
2023/05/08 12:30:15;;;;;;;2.67;1.20;;;26.30;43.90;;;;;;6004723;29;20038;-71
2023/05/08 12:33:25;;;;;;;1.65;1.35;;;26.40;43.80;;;;;;6009148;29;20138;-72
2023/05/08 12:36:35;;;;;;;5.45;1.48;;;26.40;43.90;;;;;;6010315;29;20029;-70
2023/05/08 12:39:45;;;;;;;2.25;1.63;;;26.50;43.50;;;;;;6027736;29;20025;-71
2023/05/08 12:42:52;;;;;;;1.95;1.40;;;26.40;43.50;;;;;;6027946;29;20112;-71
2023/05/08 12:46:06;;;;;;;9.38;1.55;;;26.40;43.60;;;;;;6029047;29;20108;-73
2023/05/08 12:49:24;;;;;;;2.97;1.38;;;26.30;43.80;;;;;;6026854;29;20122;-71
2023/05/08 12:52:31;;;;;;;1.65;1.20;;;26.40;43.60;;;;;;6027272;29;20104;-71
2023/05/08 12:55:39;;;;;;;1.33;1.20;;;26.70;43.30;;;;;;6012163;29;20094;-72
2023/05/08 12:58:50;;;;;;;3.30;1.27;;;27.50;42.00;;;;;;6027109;29;20116;-72
2023/05/08 13:01:58;;;;;;;1.27;1.02;;;27.80;41.30;;;;;;6027416;29;20053;-71
2023/05/08 13:05:08;;;;;;;6.28;1.60;;;28.60;40.20;;;;;;6027200;29;20147;-72
2023/05/08 13:08:15;;;;;;;2.58;1.10;;;29.10;39.10;;;;;;6025921;29;20056;-71
2023/05/08 13:11:30;;;;;;;1.55;1.08;;;29.70;37.90;;;;;;6027162;29;20030;-73
2023/05/08 13:14:34;;;;;;;2.20;1.27;;;30.10;37.10;;;;;;6028709;29;20558;-71
2023/05/08 13:17:43;;;;;;;1.10;1.00;;;30.60;36.40;;;;;;6027019;29;20105;-73
2023/05/08 13:20:56;;;;;;;1.38;0.80;;;31.10;35.20;;;;;;6026774;29;20038;-72
2023/05/08 13:24:08;;;;;;;3.08;1.10;;;31.30;34.90;;;;;;6028272;29;20391;-71
2023/05/08 13:27:17;;;;;;;1.73;1.00;;;32.50;33.50;;;;;;6027830;29;20041;-71
2023/05/08 13:30:22;;;;;;;2.40;0.90;;;33.30;32.20;;;;;;6028252;29;20026;-72
2023/05/08 13:33:29;;;;;;;1.20;0.98;;;34.50;30.70;;;;;;6027916;29;20142;-72
2023/05/08 13:36:34;;;;;;;1.25;0.90;;;34.90;29.80;;;;;;6026260;29;20035;-72
2023/05/08 13:39:43;;;;;;;1.23;1.13;;;33.90;30.50;;;;;;6011140;29;20026;-71
2023/05/08 13:42:53;;;;;;;4.70;1.73;;;32.80;31.80;;;;;;6026154;29;20475;-71
2023/05/08 13:46:05;;;;;;;4.35;0.70;;;31.60;33.30;;;;;;6011125;29;20116;-72
2023/05/08 13:49:14;;;;;;;2.38;1.15;;;31.80;33.80;;;;;;6027813;29;20037;-73
2023/05/08 13:52:23;;;;;;;1.42;0.98;;;32.90;32.10;;;;;;6038461;29;20755;-72
2023/05/08 13:55:34;;;;;;;0.85;0.73;;;33.70;30.90;;;;;;6035454;29;20038;-72
2023/05/08 13:58:42;;;;;;;1.35;1.02;;;34.30;29.90;;;;;;6027335;29;20120;-71
2023/05/08 14:01:56;;;;;;;1.25;1.05;;;34.60;29.30;;;;;;6025868;29;20090;-72
2023/05/08 14:05:10;;;;;;;3.00;1.10;;;34.80;29.20;;;;;;6027563;29;20030;-71
2023/05/08 14:08:16;;;;;;;1.73;0.88;;;35.40;28.50;;;;;;6025415;29;20041;-72
2023/05/08 14:11:27;;;;;;;1.27;0.90;;;35.70;28.20;;;;;;6027567;29;20052;-73
2023/05/08 14:14:33;;;;;;;7.25;0.90;;;35.70;27.90;;;;;;6027223;29;20056;-73
2023/05/08 14:17:42;;;;;;;1.52;0.77;;;35.10;28.30;;;;;;6027017;29;20053;-72
2023/05/08 14:20:57;;;;;;;2.90;0.90;;;34.30;29.10;;;;;;6025873;29;20037;-71
2023/05/08 14:24:08;;;;;;;1.98;0.82;;;33.20;30.20;;;;;;6025933;29;20067;-73
2023/05/08 14:27:18;;;;;;;0.70;0.70;;;32.80;30.90;;;;;;6026740;29;20136;-73
2023/05/08 14:30:26;;;;;;;2.78;0.85;;;32.80;30.70;;;;;;6025067;29;20064;-72
2023/05/08 14:33:32;;;;;;;3.25;1.08;;;32.70;30.70;;;;;;6026813;29;20034;-74
2023/05/08 14:36:39;;;;;;;0.82;0.80;;;32.80;30.50;;;;;;6026960;29;20439;-71
2023/05/08 14:39:52;;;;;;;2.42;0.93;;;33.10;30.00;;;;;;6025297;29;20040;-72
2023/05/08 14:43:06;;;;;;;0.93;0.88;;;33.20;29.90;;;;;;6040154;29;20029;-71
2023/05/08 14:46:14;;;;;;;2.38;1.13;;;32.80;30.40;;;;;;6025173;29;20041;-73
2023/05/08 14:49:21;;;;;;;0.85;0.85;;;32.10;31.40;;;;;;6026637;29;20022;-72
2023/05/08 14:52:33;;;;;;;1.77;1.10;;;31.20;32.50;;;;;;6025128;29;20063;-72
2023/05/08 14:55:42;;;;;;;1.48;1.08;;;30.60;33.70;;;;;;6026953;29;20029;-71
2023/05/08 14:58:58;;;;;;;1.92;1.00;;;30.00;34.40;;;;;;6026619;29;20202;-73
2023/05/08 15:02:08;;;;;;;0.80;0.80;;;29.40;35.30;;;;;;6026805;29;20105;-71
2023/05/08 15:05:13;;;;;;;0.85;0.68;;;29.00;36.20;;;;;;6026680;29;20151;-71
2023/05/08 15:08:23;;;;;;;1.15;0.77;;;28.50;36.90;;;;;;6024782;29;20038;-73
2023/05/08 15:11:30;;;;;;;1.48;0.90;;;28.20;37.50;;;;;;6024810;29;20061;-72
2023/05/08 15:14:34;;;;;;;0.70;0.70;;;27.80;37.90;;;;;;6026029;29;20064;-71
2023/05/08 15:17:40;;;;;;;1.38;0.73;;;27.60;38.30;;;;;;6024333;29;20085;-71
2023/05/08 15:20:51;;;;;;;0.68;0.60;;;27.60;38.60;;;;;;6025758;29;20106;-73
2023/05/08 15:24:01;;;;;;;0.88;0.75;;;27.90;38.40;;;;;;6025638;29;20029;-72
2023/05/08 15:27:08;;;;;;;1.07;0.83;;;28.80;37.10;;;;;;6026148;29;20033;-71
2023/05/08 15:30:15;;;;;;;1.73;0.90;;;29.40;36.10;;;;;;6027208;29;20049;-72
2023/05/08 15:33:25;;;;;;;0.70;0.70;;;30.30;34.90;;;;;;6020975;29;20041;-72
2023/05/08 15:36:33;;;;;;;1.67;0.80;;;30.70;34.10;;;;;;6011008;29;20036;-72
2023/05/08 15:39:37;;;;;;;;;;;31.10;33.20;;;;;;6031431;29;20170;-73
2023/05/08 15:42:44;;;;;;;0.75;0.75;;;31.60;32.60;;;;;;6029492;29;20003;-74
2023/05/08 15:45:55;;;;;;;1.52;0.80;;;32.20;31.90;;;;;;6030583;29;20040;-73
2023/05/08 15:49:05;;;;;;;1.90;0.80;;;32.50;31.20;;;;;;6030931;29;20059;-75
2023/05/08 15:52:17;;;;;;;1.23;1.02;;;32.70;31.20;;;;;;6030774;29;20305;-74
2023/05/08 15:55:28;;;;;;;1.02;0.60;;;32.90;30.50;;;;;;6017749;29;20041;-73
2023/05/08 15:58:37;;;;;;;0.82;0.82;;;32.80;30.40;;;;;;6006189;29;20045;-75
2023/05/08 16:01:45;;;;;;;0.70;0.70;;;32.50;30.60;;;;;;5991090;29;20125;-76
2023/05/08 16:05:03;;;;;;;1.15;0.70;;;32.50;30.60;;;;;;6006046;29;20052;-73
2023/05/08 16:08:11;;;;;;;1.95;0.75;;;32.70;30.50;;;;;;6006586;29;20484;-74
2023/05/08 16:11:18;;;;;;;0.73;0.70;;;32.80;30.30;;;;;;6006598;29;20120;-74
2023/05/08 16:14:28;;;;;;;1.20;0.85;;;32.80;30.10;;;;;;6006813;29;20403;-73
2023/05/08 16:17:34;;;;;;;2.85;1.00;;;32.80;29.90;;;;;;6004778;29;20128;-73
2023/05/08 16:20:46;;;;;;;1.40;0.70;;;33.20;29.80;;;;;;6005314;29;20072;-72
2023/05/08 16:23:56;;;;;;;0.70;0.50;;;33.70;29.20;;;;;;6029184;29;20090;-73
2023/05/08 16:27:05;;;;;;;0.70;0.60;;;33.90;28.60;;;;;;6027820;29;20037;-75
2023/05/08 16:30:14;;;;;;;1.58;0.70;;;34.00;28.50;;;;;;6029989;29;20105;-73
2023/05/08 16:33:20;;;;;;;2.03;0.80;;;33.90;28.50;;;;;;6029694;29;20041;-72
2023/05/08 16:36:27;;;;;;;2.10;0.60;;;33.20;29.10;;;;;;6043680;29;20391;-74
2023/05/08 16:39:33;;;;;;;5.10;1.15;;;32.20;30.00;;;;;;6028244;29;20026;-76